Time;durP1;ratioP1;P1;durP2;ratioP2;P2;SDS_P1;SDS_P2;PMS_P1;PMS_P2;Temp;Humidity;BMP_temperature;BMP_pressure;BME280_temperature;BME280_humidity;BME280_pressure;Samples;Min_cycle;Max_cycle;Signal;HPM_P1;HPM_P2
2021/05/29 00:00:13;;;;;;;3.90;3.60;;;6.60;99.90;;;;;;5035206;28;20057;-89
2021/05/29 00:02:40;;;;;;;4.03;3.15;;;6.60;99.90;;;;;;5052611;28;20052;-89
2021/05/29 00:05:08;;;;;;;5.97;3.53;;;6.60;99.90;;;;;;5037129;28;20433;-89
2021/05/29 00:07:35;;;;;;;3.78;3.35;;;6.60;99.90;;;;;;5035292;28;20045;-90
2021/05/29 00:10:03;;;;;;;3.55;3.25;;;6.70;99.90;;;;;;5052326;28;20084;-89
2021/05/29 00:12:29;;;;;;;5.57;3.22;;;6.70;99.90;;;;;;5035256;28;20055;-89
2021/05/29 00:14:56;;;;;;;3.85;2.80;;;6.70;99.90;;;;;;5052705;28;20061;-90
2021/05/29 00:17:23;;;;;;;2.95;2.75;;;6.70;99.90;;;;;;5035280;28;20041;-89
2021/05/29 00:19:50;;;;;;;2.90;2.67;;;6.60;99.90;;;;;;5035708;28;20059;-90
2021/05/29 00:22:17;;;;;;;2.80;2.58;;;6.60;99.90;;;;;;5056281;28;20128;-89
2021/05/29 00:24:43;;;;;;;5.65;3.00;;;6.40;99.90;;;;;;5056171;28;20506;-89
2021/05/29 00:27:10;;;;;;;5.57;2.90;;;6.40;99.90;;;;;;5058774;28;20405;-89
2021/05/29 00:29:37;;;;;;;4.60;2.80;;;6.30;99.90;;;;;;5040943;28;20059;-90
2021/05/29 00:32:04;;;;;;;3.45;3.10;;;6.30;99.90;;;;;;5038933;28;20047;-89
2021/05/29 00:34:31;;;;;;;4.82;2.95;;;6.20;99.90;;;;;;5038758;28;20060;-89
2021/05/29 00:36:58;;;;;;;3.70;3.40;;;6.20;99.90;;;;;;5038807;28;20117;-89
2021/05/29 00:39:25;;;;;;;3.28;2.97;;;6.10;99.90;;;;;;5038177;28;20143;-89
2021/05/29 00:41:52;;;;;;;2.25;2.15;;;6.00;99.90;;;;;;5038484;28;20041;-89
2021/05/29 00:44:18;;;;;;;3.10;2.80;;;5.90;99.90;;;;;;5056028;28;20049;-90
2021/05/29 00:46:45;;;;;;;2.95;2.75;;;5.80;99.90;;;;;;5038793;28;20123;-89
2021/05/29 00:49:12;;;;;;;6.95;3.20;;;5.80;99.90;;;;;;5055613;28;20485;-89
2021/05/29 00:51:39;;;;;;;3.17;2.97;;;5.80;99.90;;;;;;5038415;28;20086;-89
2021/05/29 00:54:06;;;;;;;3.10;2.58;;;5.70;99.90;;;;;;5038372;28;20061;-89
2021/05/29 00:56:33;;;;;;;2.85;2.65;;;5.70;99.90;;;;;;5038381;28;20111;-89
2021/05/29 00:59:02;;;;;;;2.97;2.78;;;5.50;99.90;;;;;;5038355;28;20507;-90
2021/05/29 01:01:28;;;;;;;3.35;2.90;;;5.40;99.90;;;;;;5038559;28;20063;-89
2021/05/29 01:03:55;;;;;;;3.28;3.05;;;5.40;99.90;;;;;;5038116;28;20083;-89
2021/05/29 01:06:22;;;;;;;3.58;3.28;;;5.40;99.90;;;;;;5037843;28;20059;-89
2021/05/29 01:08:49;;;;;;;3.13;2.92;;;5.40;99.90;;;;;;5038255;28;20583;-89
2021/05/29 01:11:16;;;;;;;6.40;3.65;;;5.40;99.90;;;;;;5055589;28;20055;-89
2021/05/29 01:13:43;;;;;;;4.63;3.40;;;5.40;99.90;;;;;;5038034;28;20049;-89
2021/05/29 01:16:30;;;;;;;3.97;3.63;;;5.40;99.90;;;;;;5055438;28;20055;-89
2021/05/29 01:18:57;;;;;;;4.63;3.28;;;5.50;99.90;;;;;;5037893;28;20088;-88
2021/05/29 01:21:24;;;;;;;4.05;3.72;;;5.60;99.90;;;;;;5055514;28;20053;-89
2021/05/29 01:23:51;;;;;;;8.35;3.55;;;5.60;99.90;;;;;;5038093;28;20052;-89
2021/05/29 01:26:18;;;;;;;4.43;3.53;;;5.60;99.90;;;;;;5037971;28;20041;-90
2021/05/29 01:28:46;;;;;;;3.90;3.35;;;5.70;99.90;;;;;;5037759;28;20493;-89
2021/05/29 01:31:14;;;;;;;3.60;2.88;;;5.70;99.90;;;;;;5037745;28;20081;-89
2021/05/29 01:33:41;;;;;;;6.95;3.28;;;5.60;99.90;;;;;;5054845;28;20049;-89
2021/05/29 01:36:11;;;;;;;3.28;3.00;;;5.60;99.90;;;;;;5037680;28;20057;-90
2021/05/29 01:38:39;;;;;;;3.25;2.97;;;5.60;99.90;;;;;;5055289;28;20048;-89
2021/05/29 01:41:07;;;;;;;3.80;3.20;;;5.60;99.90;;;;;;5037702;28;20471;-91
2021/05/29 01:43:40;;;;;;;3.38;3.08;;;5.60;99.90;;;;;;5038435;28;20072;-90
2021/05/29 01:46:09;;;;;;;3.57;3.20;;;5.70;99.90;;;;;;5040878;28;20413;-89
2021/05/29 01:48:44;;;;;;;3.53;3.17;;;5.60;99.90;;;;;;5037233;28;20053;-89
2021/05/29 01:51:17;;;;;;;3.83;3.45;;;5.60;99.90;;;;;;5037393;28;20551;-89
2021/05/29 01:53:44;;;;;;;4.10;3.30;;;5.60;99.90;;;;;;5037595;28;20056;-89
2021/05/29 01:56:13;;;;;;;3.88;3.28;;;5.60;99.90;;;;;;5037167;28;20057;-89
2021/05/29 01:58:41;;;;;;;3.63;3.00;;;5.70;99.90;;;;;;5037047;28;20044;-91
2021/05/29 02:01:09;;;;;;;4.57;3.28;;;5.70;99.90;;;;;;5037030;28;20049;-89
2021/05/29 02:03:36;;;;;;;3.22;3.00;;;5.70;99.90;;;;;;5037407;28;20473;-88
2021/05/29 02:06:04;;;;;;;3.17;2.75;;;5.70;99.90;;;;;;5037269;28;20063;-90
2021/05/29 02:08:31;;;;;;;2.90;2.70;;;5.60;99.90;;;;;;5037405;28;20374;-89
2021/05/29 02:10:58;;;;;;;3.20;2.90;;;5.60;99.90;;;;;;5037267;28;20414;-89
2021/05/29 02:13:28;;;;;;;2.78;2.63;;;5.70;99.90;;;;;;5037066;28;20053;-90
2021/05/29 02:15:56;;;;;;;3.72;3.00;;;5.70;99.90;;;;;;5036985;28;20063;-89
2021/05/29 02:18:23;;;;;;;5.15;2.83;;;5.70;99.90;;;;;;5037319;28;20040;-89
2021/05/29 02:21:03;;;;;;;3.20;3.00;;;5.60;99.90;;;;;;5036775;28;20079;-89
2021/05/29 02:23:37;;;;;;;4.18;2.80;;;5.60;99.90;;;;;;5037077;28;20044;-89
2021/05/29 02:26:05;;;;;;;;;;;5.50;99.90;;;;;;5037340;28;20485;-88
2021/05/29 02:28:35;;;;;;;4.72;2.83;;;5.40;99.90;;;;;;5036927;28;19927;-89
2021/05/29 02:31:04;;;;;;;2.65;2.45;;;5.30;99.90;;;;;;5036332;28;20053;-89
2021/05/29 02:33:32;;;;;;;6.40;2.60;;;5.30;99.90;;;;;;5036512;28;20049;-89
2021/05/29 02:35:58;;;;;;;5.43;2.78;;;5.30;99.90;;;;;;5053800;28;20436;-89
2021/05/29 02:38:26;;;;;;;2.90;2.70;;;5.20;99.90;;;;;;5036573;28;20056;-89
2021/05/29 02:40:53;;;;;;;3.58;2.55;;;5.10;99.90;;;;;;5053766;28;20055;-89
2021/05/29 02:43:21;;;;;;;2.75;2.53;;;5.00;99.90;;;;;;5035878;28;20060;-90
2021/05/29 02:45:47;;;;;;;2.72;2.42;;;4.80;99.90;;;;;;5036055;28;20051;-89
2021/05/29 02:48:15;;;;;;;3.40;2.92;;;4.80;99.90;;;;;;5036162;28;20053;-89
2021/05/29 02:50:43;;;;;;;5.30;3.55;;;4.80;99.90;;;;;;5036144;28;20091;-90
2021/05/29 02:53:12;;;;;;;3.85;3.55;;;4.90;99.90;;;;;;5036321;28;20041;-89
2021/05/29 02:55:40;;;;;;;3.95;3.65;;;5.00;99.90;;;;;;5035953;28;20067;-89
2021/05/29 02:58:07;;;;;;;3.85;3.50;;;5.00;99.90;;;;;;5036356;28;20056;-89
2021/05/29 03:00:38;;;;;;;3.78;3.25;;;5.00;99.90;;;;;;5036199;28;20075;-88
2021/05/29 03:03:07;;;;;;;3.88;3.38;;;5.10;99.90;;;;;;5039789;28;20044;-89
2021/05/29 03:05:36;;;;;;;3.90;3.55;;;5.10;99.90;;;;;;5053953;28;20141;-89
2021/05/29 03:08:04;;;;;;;3.30;3.00;;;5.20;99.90;;;;;;5036130;28;20123;-90
2021/05/29 03:10:31;;;;;;;3.35;3.15;;;5.20;99.90;;;;;;5036105;28;20059;-90
2021/05/29 03:12:58;;;;;;;3.03;2.83;;;5.20;99.90;;;;;;5035848;28;20056;-89
2021/05/29 03:15:26;;;;;;;2.90;2.70;;;5.20;99.90;;;;;;5035694;28;20056;-89
2021/05/29 03:17:54;;;;;;;2.95;2.70;;;5.20;99.90;;;;;;5035855;28;20051;-90
2021/05/29 03:20:24;;;;;;;3.25;3.05;;;5.20;99.90;;;;;;5036025;28;20049;-89
2021/05/29 03:22:52;;;;;;;6.03;2.70;;;5.30;99.90;;;;;;5035851;28;20055;-89
2021/05/29 03:25:20;;;;;;;3.33;2.85;;;5.30;99.90;;;;;;5035710;28;20055;-89
2021/05/29 03:27:51;;;;;;;2.92;2.70;;;5.30;99.90;;;;;;5053359;28;20114;-88
2021/05/29 03:30:22;;;;;;;2.53;2.33;;;5.40;99.90;;;;;;5035621;28;20394;-88
2021/05/29 03:32:49;;;;;;;3.42;3.03;;;5.40;99.90;;;;;;5053295;28;20049;-89
2021/05/29 03:35:17;;;;;;;4.93;3.05;;;5.40;99.90;;;;;;5053247;28;20041;-89
2021/05/29 03:37:44;;;;;;;4.55;3.00;;;5.50;99.90;;;;;;5053330;28;20087;-89
2021/05/29 03:40:12;;;;;;;3.15;2.95;;;5.50;99.90;;;;;;5035502;28;20394;-88
2021/05/29 03:42:39;;;;;;;8.57;3.75;;;5.60;99.90;;;;;;5035356;28;20083;-89
2021/05/29 03:45:09;;;;;;;5.78;3.95;;;5.60;99.90;;;;;;5035588;28;20139;-89
2021/05/29 03:47:36;;;;;;;10.23;5.70;;;5.70;99.90;;;;;;5052220;28;20049;-89
2021/05/29 03:50:04;;;;;;;8.70;6.35;;;5.80;99.90;;;;;;5052826;28;20091;-90
2021/05/29 03:52:31;;;;;;;7.85;4.25;;;5.90;99.90;;;;;;5052842;28;20128;-89
2021/05/29 03:54:58;;;;;;;5.80;3.78;;;6.00;99.90;;;;;;5035816;28;20534;-90
2021/05/29 03:57:25;;;;;;;4.30;3.90;;;6.00;99.90;;;;;;5057046;28;20515;-89
2021/05/29 03:59:51;;;;;;;5.63;4.43;;;6.10;99.90;;;;;;5039374;28;20136;-89
2021/05/29 04:02:19;;;;;;;5.90;5.13;;;6.10;99.90;;;;;;5039558;28;20045;-89
2021/05/29 04:04:46;;;;;;;4.70;4.30;;;6.20;99.90;;;;;;5039133;28;20059;-90
2021/05/29 04:07:12;;;;;;;8.82;5.65;;;6.20;99.90;;;;;;5056820;28;20224;-89
2021/05/29 04:09:40;;;;;;;8.27;5.57;;;6.30;99.90;;;;;;5038839;28;20053;-88
2021/05/29 04:12:07;;;;;;;6.45;5.20;;;6.40;99.90;;;;;;5038898;28;20053;-89
2021/05/29 04:14:34;;;;;;;10.43;5.88;;;6.50;99.90;;;;;;5039058;28;20559;-90
2021/05/29 04:17:02;;;;;;;14.52;5.50;;;6.50;99.90;;;;;;5056607;28;20139;-89
2021/05/29 04:19:29;;;;;;;15.23;7.13;;;6.60;99.90;;;;;;5043304;28;20128;-89
2021/05/29 04:21:55;;;;;;;19.58;7.45;;;6.60;99.90;;;;;;5039923;28;20048;-89
2021/05/29 04:24:22;;;;;;;12.32;6.85;;;6.70;99.90;;;;;;5038826;28;20049;-90
2021/05/29 04:26:49;;;;;;;21.65;7.63;;;6.80;99.90;;;;;;5056380;28;20527;-88
2021/05/29 04:29:16;;;;;;;14.73;7.40;;;6.80;99.90;;;;;;5039273;28;20076;-89
2021/05/29 04:31:43;;;;;;;14.38;6.90;;;6.80;99.90;;;;;;5039285;28;20056;-89
2021/05/29 04:34:10;;;;;;;18.98;8.02;;;6.80;99.90;;;;;;5039076;28;20136;-88
2021/05/29 04:36:37;;;;;;;33.38;9.23;;;6.80;99.90;;;;;;5056350;28;20084;-89
2021/05/29 04:39:04;;;;;;;17.45;8.30;;;6.80;99.90;;;;;;5056455;28;20056;-89
2021/05/29 04:41:31;;;;;;;24.45;8.57;;;6.90;99.90;;;;;;5056050;28;20049;-89
2021/05/29 04:43:58;;;;;;;20.33;8.90;;;6.80;99.90;;;;;;5040674;28;20507;-89
2021/05/29 04:46:26;;;;;;;19.83;8.93;;;6.80;99.90;;;;;;5038290;28;20063;-89
2021/05/29 04:48:53;;;;;;;20.80;9.48;;;6.80;99.90;;;;;;5038833;28;20053;-89
2021/05/29 04:51:21;;;;;;;25.02;10.02;;;6.80;99.90;;;;;;5056017;28;20080;-88
2021/05/29 04:53:48;;;;;;;9.98;5.88;;;6.90;99.90;;;;;;5038704;28;20132;-89
2021/05/29 04:56:16;;;;;;;15.90;6.55;;;6.90;99.90;;;;;;5038275;28;20049;-90
2021/05/29 04:58:43;;;;;;;13.75;5.00;;;7.00;99.90;;;;;;5056239;28;20132;-90
2021/05/29 05:01:11;;;;;;;12.48;4.93;;;7.20;99.90;;;;;;5038340;28;20049;-88
2021/05/29 05:03:40;;;;;;;9.10;4.25;;;7.10;99.90;;;;;;5038560;28;20053;-89
2021/05/29 05:06:07;;;;;;;6.78;4.00;;;7.10;99.90;;;;;;5055077;28;20135;-89
2021/05/29 05:08:35;;;;;;;3.45;3.08;;;7.20;99.90;;;;;;5037798;28;20053;-89
2021/05/29 05:11:02;;;;;;;3.08;2.80;;;7.20;99.90;;;;;;5038341;28;20045;-89
2021/05/29 05:13:29;;;;;;;7.18;3.00;;;7.20;99.90;;;;;;5038439;28;20045;-89
2021/05/29 05:15:56;;;;;;;2.72;2.53;;;7.30;99.90;;;;;;5037870;28;20041;-90
2021/05/29 05:18:23;;;;;;;3.35;2.35;;;7.30;99.90;;;;;;5055568;28;20044;-89
2021/05/29 05:20:51;;;;;;;2.72;2.53;;;7.40;99.90;;;;;;5038028;28;20386;-90
2021/05/29 05:23:21;;;;;;;3.45;3.00;;;7.50;99.90;;;;;;5037971;28;20477;-90
2021/05/29 05:25:51;;;;;;;3.35;2.33;;;7.60;99.90;;;;;;5037932;28;20053;-90
2021/05/29 05:28:18;;;;;;;3.17;2.97;;;7.70;99.90;;;;;;5038089;28;20481;-89
2021/05/29 05:30:45;;;;;;;2.85;2.60;;;7.80;99.90;;;;;;5037688;28;20053;-90
2021/05/29 05:33:12;;;;;;;4.82;2.80;;;8.10;99.90;;;;;;5038196;28;20049;-90
2021/05/29 05:35:39;;;;;;;2.70;2.50;;;8.20;99.90;;;;;;5058809;28;20088;-89
2021/05/29 05:38:06;;;;;;;3.83;2.50;;;8.30;99.90;;;;;;5042499;28;20048;-89
2021/05/29 05:40:32;;;;;;;3.05;2.20;;;9.30;99.90;;;;;;5037526;28;20045;-88
2021/05/29 05:42:59;;;;;;;2.08;1.98;;;11.20;99.90;;;;;;5055022;28;20489;-90
2021/05/29 05:45:26;;;;;;;4.15;1.70;;;12.50;99.90;;;;;;5037469;28;20049;-90
2021/05/29 05:47:53;;;;;;;3.70;1.95;;;13.30;99.90;;;;;;5054751;28;20131;-90
2021/05/29 05:50:19;;;;;;;5.88;2.25;;;14.80;99.90;;;;;;5054977;28;20049;-90
2021/05/29 05:52:46;;;;;;;9.55;2.10;;;15.70;99.90;;;;;;5037352;28;20057;-90
2021/05/29 05:55:14;;;;;;;15.75;2.80;;;16.30;99.90;;;;;;5054780;28;20560;-91
2021/05/29 05:57:41;;;;;;;11.13;2.63;;;16.80;99.90;;;;;;5037515;28;20408;-90
2021/05/29 06:00:10;;;;;;;8.35;2.10;;;16.10;99.90;;;;;;5037178;28;20140;-90
2021/05/29 06:02:38;;;;;;;9.45;1.90;;;15.20;99.90;;;;;;5054605;28;20053;-91
2021/05/29 06:05:06;;;;;;;3.80;2.13;;;13.30;99.90;;;;;;5037064;28;20044;-91
2021/05/29 06:07:32;;;;;;;9.98;3.50;;;12.10;99.90;;;;;;5037432;28;20048;-91
2021/05/29 06:09:59;;;;;;;13.15;3.65;;;11.50;99.90;;;;;;5037432;28;20610;-92
2021/05/29 06:12:26;;;;;;;16.05;4.53;;;11.10;99.90;;;;;;5037836;28;20041;-91
2021/05/29 06:20:24;;;;;;;12.57;3.92;;;12.00;99.90;;;;;;5054229;28;20477;-91
2021/05/29 06:22:50;;;;;;;13.80;3.90;;;12.50;99.90;;;;;;5036602;28;20067;-91
2021/05/29 06:25:17;;;;;;;12.15;3.13;;;14.10;99.90;;;;;;5036510;28;20128;-92
2021/05/29 06:27:44;;;;;;;4.57;3.42;;;15.40;99.90;;;;;;5036826;28;20104;-92
2021/05/29 06:30:12;;;;;;;8.85;3.17;;;16.90;99.90;;;;;;5057051;28;20091;-91
2021/05/29 06:32:39;;;;;;;8.55;2.67;;;18.30;99.90;;;;;;5037167;28;20140;-90
2021/05/29 06:35:07;;;;;;;8.10;2.45;;;19.50;99.90;;;;;;5037244;28;20048;-89
2021/05/29 06:37:36;;;;;;;11.80;2.35;;;20.70;99.90;;;;;;5036777;28;20072;-90
2021/05/29 06:40:05;;;;;;;3.97;2.20;;;21.20;96.50;;;;;;5036917;28;20135;-92
2021/05/29 06:42:32;;;;;;;3.83;2.03;;;21.20;93.50;;;;;;5036479;28;20044;-91
2021/05/29 06:44:59;;;;;;;5.32;3.70;;;21.00;94.80;;;;;;5036748;28;20045;-93
2021/05/29 06:47:26;;;;;;;6.45;3.67;;;19.50;96.30;;;;;;5036829;28;20049;-94
2021/05/29 06:49:53;;;;;;;5.25;1.88;;;18.70;99.90;;;;;;5037079;28;20045;-90
2021/05/29 06:52:23;;;;;;;4.28;3.47;;;19.30;99.90;;;;;;5037661;28;20048;-90
2021/05/29 06:55:00;;;;;;;2.08;1.88;;;18.00;99.90;;;;;;5043442;28;20055;-88
2021/05/29 07:00:13;;;;;;;2.50;2.30;;;15.60;99.90;;;;;;5053839;28;20386;-92
2021/05/29 07:02:40;;;;;;;2.10;1.90;;;15.40;99.90;;;;;;5036266;28;20417;-92
2021/05/29 07:05:10;;;;;;;2.45;2.25;;;15.20;99.90;;;;;;5036294;28;20469;-91
2021/05/29 07:07:38;;;;;;;4.93;2.33;;;14.90;99.90;;;;;;5035976;28;20520;-94
2021/05/29 07:10:06;;;;;;;4.85;1.83;;;15.20;99.90;;;;;;5036253;28;20136;-93
2021/05/29 07:12:36;;;;;;;3.03;1.83;;;15.50;99.90;;;;;;5036753;28;20106;-91
2021/05/29 07:15:04;;;;;;;2.03;1.92;;;16.20;99.90;;;;;;5036912;28;20068;-92
2021/05/29 07:17:33;;;;;;;2.00;1.90;;;16.30;99.90;;;;;;5043967;28;20515;-91
2021/05/29 07:20:14;;;;;;;3.03;2.53;;;15.90;99.90;;;;;;5041248;28;20109;-91
2021/05/29 07:22:41;;;;;;;3.05;2.05;;;15.10;99.90;;;;;;5039081;28;20577;-94
2021/05/29 07:25:08;;;;;;;2.05;1.90;;;14.90;99.90;;;;;;5038336;28;20053;-90
2021/05/29 07:27:36;;;;;;;1.80;1.70;;;14.60;99.90;;;;;;5038558;28;20049;-94
2021/05/29 07:30:07;;;;;;;4.55;2.00;;;14.90;99.90;;;;;;5025234;28;20110;-93
2021/05/29 07:32:37;;;;;;;2.58;1.50;;;17.20;99.90;;;;;;5038332;28;20145;-90
2021/05/29 07:35:05;;;;;;;2.03;1.63;;;18.80;99.90;;;;;;5036511;28;20135;-90
2021/05/29 07:37:31;;;;;;;1.88;1.58;;;19.60;99.90;;;;;;5036071;28;20045;-90
2021/05/29 07:39:58;;;;;;;1.65;1.42;;;19.50;99.90;;;;;;5036324;28;20053;-89
2021/05/29 07:42:25;;;;;;;5.90;1.75;;;18.10;99.90;;;;;;5035518;28;20171;-90
2021/05/29 07:44:52;;;;;;;1.63;1.52;;;17.40;99.90;;;;;;5036152;28;20048;-90
2021/05/29 07:47:19;;;;;;;1.60;1.50;;;17.40;99.90;;;;;;5036099;28;20059;-90
2021/05/29 07:49:46;;;;;;;2.35;1.58;;;18.20;99.90;;;;;;5036112;28;20049;-91
2021/05/29 07:52:13;;;;;;;2.30;1.45;;;19.50;99.90;;;;;;5035843;28;20071;-91
2021/05/29 07:54:40;;;;;;;1.60;1.50;;;20.60;99.40;;;;;;5035815;28;20053;-91
2021/05/29 07:57:09;;;;;;;5.38;1.60;;;19.80;98.20;;;;;;5036401;28;20063;-90
2021/05/29 07:59:37;;;;;;;2.92;1.27;;;19.40;99.90;;;;;;5036587;28;20128;-90
2021/05/29 08:02:04;;;;;;;2.78;1.50;;;18.60;99.90;;;;;;5039250;28;20052;-89
2021/05/29 08:04:34;;;;;;;1.92;1.83;;;17.60;99.90;;;;;;5036863;28;20136;-92
2021/05/29 08:07:02;;;;;;;2.05;1.80;;;16.60;99.90;;;;;;5039240;28;20053;-90
2021/05/29 08:09:29;;;;;;;2.13;1.98;;;16.00;99.90;;;;;;5038620;28;20553;-93
2021/05/29 08:11:56;;;;;;;1.60;1.55;;;17.30;99.90;;;;;;5045335;28;20145;-89
2021/05/29 08:14:23;;;;;;;1.63;1.52;;;19.10;99.90;;;;;;5049401;28;20057;-91
2021/05/29 08:16:49;;;;;;;2.13;1.48;;;19.70;99.80;;;;;;5042207;28;20072;-91
2021/05/29 08:19:16;;;;;;;1.05;1.02;;;20.40;98.90;;;;;;5037674;28;20109;-89
2021/05/29 08:21:46;;;;;;;3.10;1.60;;;21.80;92.00;;;;;;5037447;28;20135;-89
2021/05/29 08:24:13;;;;;;;2.60;1.52;;;22.30;84.00;;;;;;5037588;28;20045;-89
2021/05/29 08:26:41;;;;;;;1.80;1.63;;;22.80;84.70;;;;;;5038700;28;20059;-90
2021/05/29 08:29:13;;;;;;;1.48;1.40;;;23.80;82.50;;;;;;5023026;28;20136;-93
2021/05/29 08:31:43;;;;;;;2.22;1.60;;;22.90;81.60;;;;;;5038237;28;20123;-90
2021/05/29 08:34:10;;;;;;;1.85;1.75;;;21.60;81.30;;;;;;5037304;28;20512;-91
2021/05/29 08:36:38;;;;;;;5.47;1.95;;;20.20;90.00;;;;;;5037616;28;20508;-91
2021/05/29 08:39:07;;;;;;;3.65;2.63;;;20.10;93.30;;;;;;5041477;28;20061;-93
2021/05/29 08:41:36;;;;;;;2.65;1.90;;;20.40;93.60;;;;;;5038364;28;20044;-90
2021/05/29 08:44:05;;;;;;;3.65;1.83;;;21.20;90.80;;;;;;5044891;28;20156;-93
2021/05/29 08:46:32;;;;;;;1.65;1.55;;;21.40;89.10;;;;;;5043359;28;20136;-92
2021/05/29 08:48:59;;;;;;;2.08;1.67;;;21.70;89.10;;;;;;5041449;28;20055;-93
2021/05/29 08:51:26;;;;;;;1.70;1.58;;;22.00;85.80;;;;;;5043149;28;20080;-94
2021/05/29 08:53:57;;;;;;;3.30;1.55;;;23.00;81.60;;;;;;5046236;28;20112;-91
2021/05/29 08:56:27;;;;;;;1.38;1.27;;;23.50;76.60;;;;;;5043513;28;20060;-93
2021/05/29 08:58:55;;;;;;;2.03;1.80;;;26.30;71.70;;;;;;5046409;28;20060;-94
2021/05/29 09:01:24;;;;;;;2.53;1.15;;;26.20;66.20;;;;;;5044389;28;20045;-90
2021/05/29 09:03:59;;;;;;;3.70;1.45;;;27.10;61.10;;;;;;5043697;28;20517;-90
2021/05/29 09:06:26;;;;;;;40.40;6.38;;;27.80;58.80;;;;;;5042275;28;20135;-90
2021/05/29 09:08:54;;;;;;;1.30;1.20;;;28.50;56.60;;;;;;5043119;28;20052;-91
2021/05/29 09:11:50;;;;;;;1.63;1.20;;;26.40;56.90;;;;;;5042960;28;20061;-92
2021/05/29 09:14:24;;;;;;;1.00;0.90;;;26.70;60.20;;;;;;5043429;28;20515;-93
2021/05/29 09:17:13;;;;;;;1.33;1.05;;;27.70;57.50;;;;;;5043588;28;20075;-91
2021/05/29 09:20:02;;;;;;;7.55;1.58;;;26.50;56.80;;;;;;5043725;28;20061;-92
2021/05/29 09:22:32;;;;;;;1.00;0.80;;;25.60;58.30;;;;;;5041828;28;20053;-91
2021/05/29 09:25:14;;;;;;;1.73;1.20;;;24.50;60.20;;;;;;5042668;28;20044;-91
2021/05/29 09:27:52;;;;;;;2.58;1.17;;;23.30;61.90;;;;;;5042856;28;20540;-91
2021/05/29 09:30:48;;;;;;;1.23;1.10;;;22.00;65.80;;;;;;5046889;28;20048;-90
2021/05/29 09:33:27;;;;;;;4.82;1.33;;;20.70;71.30;;;;;;5042997;28;20144;-92
2021/05/29 09:36:06;;;;;;;1.48;1.23;;;19.80;80.20;;;;;;5041996;28;20493;-91
2021/05/29 09:38:39;;;;;;;2.05;1.15;;;19.30;87.20;;;;;;5042828;28;20055;-91
2021/05/29 09:41:25;;;;;;;2.17;1.20;;;19.10;90.70;;;;;;5041943;28;20135;-91
2021/05/29 09:43:59;;;;;;;2.15;1.02;;;19.00;94.50;;;;;;5042232;28;20544;-92
2021/05/29 09:46:28;;;;;;;2.08;1.20;;;19.10;92.40;;;;;;5042648;28;20069;-91
2021/05/29 09:49:00;;;;;;;1.63;1.33;;;19.70;91.90;;;;;;5043182;28;20053;-91
2021/05/29 09:51:31;;;;;;;1.63;1.10;;;20.40;88.90;;;;;;5042767;28;20053;-92
2021/05/29 09:54:06;;;;;;;1.50;1.40;;;21.10;82.90;;;;;;5042505;28;20497;-92
2021/05/29 09:56:40;;;;;;;6.35;0.98;;;20.80;81.90;;;;;;5042880;28;20135;-92
2021/05/29 09:59:07;;;;;;;2.50;1.25;;;20.60;82.60;;;;;;5044374;28;20127;-91
2021/05/29 10:01:34;;;;;;;2.00;1.10;;;20.20;85.70;;;;;;5043770;28;20413;-91
2021/05/29 10:04:06;;;;;;;12.63;2.22;;;20.60;83.40;;;;;;5042910;28;20061;-92
2021/05/29 10:06:33;;;;;;;1.55;1.40;;;20.70;86.40;;;;;;5027846;28;20413;-94
2021/05/29 10:09:02;;;;;;;1.60;1.45;;;20.30;84.20;;;;;;5044755;28;20049;-95
2021/05/29 10:11:31;;;;;;;1.98;1.38;;;21.00;88.50;;;;;;5046112;28;20405;-93
2021/05/29 10:13:58;;;;;;;1.45;1.20;;;22.30;77.50;;;;;;5044347;28;20049;-93
2021/05/29 10:16:26;;;;;;;0.80;0.80;;;25.10;70.30;;;;;;5032931;28;20059;-93
2021/05/29 10:18:54;;;;;;;1.23;0.90;;;26.50;62.50;;;;;;5050803;28;20048;-93
2021/05/29 10:21:27;;;;;;;1.55;1.10;;;27.20;56.50;;;;;;5045550;28;20459;-92
2021/05/29 10:23:55;;;;;;;1.27;0.90;;;26.30;58.00;;;;;;5045631;28;20045;-92
2021/05/29 10:26:25;;;;;;;5.00;1.20;;;25.70;59.20;;;;;;5044564;28;20084;-93
2021/05/29 10:28:53;;;;;;;1.45;0.98;;;26.70;58.50;;;;;;5046087;28;20061;-92
2021/05/29 10:31:21;;;;;;;0.80;0.80;;;26.70;54.30;;;;;;5043495;28;20468;-89
2021/05/29 10:33:48;;;;;;;0.88;0.70;;;26.30;55.50;;;;;;5039644;28;20067;-91
2021/05/29 10:36:42;;;;;;;0.90;0.90;;;26.20;55.90;;;;;;5039627;28;20047;-89
2021/05/29 10:39:23;;;;;;;0.80;0.80;;;25.60;56.30;;;;;;5040661;28;20484;-90
2021/05/29 10:42:00;;;;;;;1.98;1.00;;;24.50;58.00;;;;;;5040813;28;20074;-91
2021/05/29 10:44:42;;;;;;;1.20;1.20;;;23.60;59.50;;;;;;5041435;28;20056;-89
2021/05/29 10:47:20;;;;;;;1.30;1.00;;;22.50;62.00;;;;;;5042806;28;20083;-90
2021/05/29 10:49:47;;;;;;;0.90;0.90;;;21.80;65.40;;;;;;5039259;28;20112;-89
2021/05/29 10:52:33;;;;;;;1.95;1.00;;;21.20;68.50;;;;;;5043152;28;20088;-89
2021/05/29 10:55:09;;;;;;;2.42;1.00;;;20.60;73.00;;;;;;5043030;28;20068;-93
2021/05/29 10:57:49;;;;;;;1.00;1.00;;;20.00;78.20;;;;;;5043271;28;20076;-92
2021/05/29 11:00:34;;;;;;;1.65;1.13;;;20.80;80.80;;;;;;5043315;28;20152;-93
2021/05/29 11:03:17;;;;;;;1.85;1.20;;;24.00;68.70;;;;;;5042718;28;20075;-95
2021/05/29 11:05:46;;;;;;;1.10;1.00;;;25.30;63.30;;;;;;5043230;28;20459;-94
2021/05/29 11:08:44;;;;;;;0.90;0.80;;;25.30;58.10;;;;;;5041792;28;20131;-93
2021/05/29 11:11:46;;;;;;;1.25;0.70;;;27.70;54.50;;;;;;5059250;28;20055;-92
2021/05/29 11:14:22;;;;;;;1.20;0.90;;;27.00;53.50;;;;;;5045384;28;20045;-94
2021/05/29 11:16:49;;;;;;;0.70;0.70;;;27.50;53.50;;;;;;5047375;28;20062;-94
2021/05/29 11:19:27;;;;;;;3.33;1.00;;;28.80;52.00;;;;;;5039240;28;20069;-94
2021/05/29 11:22:14;;;;;;;1.95;0.98;;;26.90;51.90;;;;;;5037848;28;20557;-91
2021/05/29 11:24:44;;;;;;;1.30;0.98;;;24.80;54.30;;;;;;5045394;28;20059;-93
2021/05/29 11:27:18;;;;;;;2.67;0.90;;;22.90;57.70;;;;;;5040529;28;20142;-92
2021/05/29 11:29:49;;;;;;;2.70;1.10;;;21.80;61.00;;;;;;5039735;28;20136;-93
2021/05/29 11:35:34;;;;;;;1.30;1.20;;;19.00;69.10;;;;;;5054508;28;20131;-90
2021/05/29 11:38:20;;;;;;;1.45;1.30;;;18.90;73.20;;;;;;5038489;28;20136;-90
2021/05/29 11:40:49;;;;;;;1.20;1.10;;;18.40;73.90;;;;;;5036946;28;20128;-91
2021/05/29 11:43:18;;;;;;;2.58;1.27;;;18.30;78.20;;;;;;5037647;28;20071;-89
2021/05/29 11:45:46;;;;;;;2.17;1.42;;;19.40;78.00;;;;;;5039942;28;20105;-94
2021/05/29 11:48:13;;;;;;;2.05;1.38;;;20.00;74.10;;;;;;5040497;28;20072;-89
2021/05/29 11:50:40;;;;;;;3.28;1.63;;;20.60;69.60;;;;;;5037785;28;20129;-91
2021/05/29 11:53:10;;;;;;;2.42;1.40;;;21.60;67.40;;;;;;5038740;28;20087;-93
2021/05/29 11:55:54;;;;;;;1.13;1.08;;;21.40;65.30;;;;;;5055068;28;20515;-92
2021/05/29 11:58:21;;;;;;;1.50;1.38;;;21.30;66.30;;;;;;5039865;28;20081;-93
2021/05/29 12:00:57;;;;;;;1.85;1.27;;;20.60;67.20;;;;;;5041488;28;20112;-93
2021/05/29 12:03:53;;;;;;;1.23;1.13;;;19.70;69.90;;;;;;5064402;28;20052;-90
2021/05/29 12:06:33;;;;;;;1.30;1.17;;;19.30;72.50;;;;;;5038352;28;20489;-91
2021/05/29 12:09:03;;;;;;;1.83;1.10;;;18.90;69.20;;;;;;5036631;28;20051;-90
2021/05/29 12:11:32;;;;;;;1.10;1.10;;;18.60;72.70;;;;;;5035493;28;20055;-90
2021/05/29 12:14:06;;;;;;;2.80;1.13;;;18.70;71.60;;;;;;5036299;28;20053;-92
2021/05/29 12:16:36;;;;;;;1.42;1.10;;;18.80;71.70;;;;;;5037497;28;20481;-92
2021/05/29 12:19:05;;;;;;;2.15;0.98;;;19.40;70.30;;;;;;5057381;28;20408;-90
2021/05/29 12:21:48;;;;;;;1.38;1.38;;;19.80;74.10;;;;;;5040267;28;20140;-95
2021/05/29 12:24:15;;;;;;;1.15;0.93;;;19.90;70.20;;;;;;5041128;28;20053;-90
2021/05/29 12:26:43;;;;;;;1.20;0.82;;;19.40;70.00;;;;;;5040172;28;20047;-89
2021/05/29 12:29:10;;;;;;;1.00;1.00;;;19.10;68.40;;;;;;5040049;28;20056;-89
2021/05/29 12:31:49;;;;;;;1.20;1.10;;;18.80;70.60;;;;;;5039528;28;20132;-89
2021/05/29 12:34:16;;;;;;;1.25;1.15;;;18.60;70.20;;;;;;5057956;28;20080;-92
2021/05/29 12:37:09;;;;;;;1.70;1.23;;;18.90;75.60;;;;;;5040546;28;20045;-90
2021/05/29 12:39:49;;;;;;;1.40;1.10;;;18.90;71.80;;;;;;5040465;28;20069;-91
2021/05/29 12:42:25;;;;;;;2.83;1.75;;;19.00;73.00;;;;;;5039524;28;20507;-91
2021/05/29 12:45:04;;;;;;;2.63;1.23;;;19.20;75.00;;;;;;5038572;28;20056;-88
2021/05/29 12:47:33;;;;;;;1.20;1.20;;;19.70;76.50;;;;;;5040094;28;20055;-93
2021/05/29 12:50:15;;;;;;;1.63;1.48;;;20.20;70.60;;;;;;5040889;28;20136;-90
2021/05/29 12:52:42;;;;;;;1.40;1.30;;;20.50;67.90;;;;;;5039044;28;20049;-92
2021/05/29 12:55:22;;;;;;;2.08;1.00;;;20.30;73.00;;;;;;5039250;28;20059;-88
2021/05/29 12:57:49;;;;;;;2.47;1.30;;;20.00;69.20;;;;;;5039130;28;20124;-90
2021/05/29 13:00:22;;;;;;;1.27;1.17;;;19.50;69.90;;;;;;5041730;28;20053;-93
2021/05/29 13:09:08;;;;;;;2.80;1.10;;;18.40;69.20;;;;;;5059308;28;20660;-94
2021/05/29 13:11:36;;;;;;;2.05;1.02;;;18.50;71.70;;;;;;5039222;28;20102;-88
2021/05/29 13:14:13;;;;;;;2.25;1.25;;;18.70;72.80;;;;;;5038673;28;20122;-90
2021/05/29 13:16:53;;;;;;;1.55;1.13;;;19.00;71.00;;;;;;5039453;28;20040;-93
2021/05/29 13:19:46;;;;;;;1.38;1.20;;;19.30;72.50;;;;;;5045629;28;20057;-90
2021/05/29 13:22:36;;;;;;;0.90;0.90;;;19.30;73.90;;;;;;5039658;28;20412;-89